Time;durP1;ratioP1;P1;durP2;ratioP2;P2;SDS_P1;SDS_P2;PMS_P1;PMS_P2;Temp;Humidity;BMP_temperature;BMP_pressure;BME280_temperature;BME280_humidity;BME280_pressure;Samples;Min_cycle;Max_cycle;Signal;HPM_P1;HPM_P2
2021/08/26 08:14:46;;;;;;;4.89;3.37;;;;;;;15.22;79.13;99413.02;370990;144;879611;-59
2021/08/26 08:15:47;;;;;;;7.81;3.67;;;;;;;15.11;79.24;99411.65;364666;147;857626;-60
2021/08/26 08:16:50;;;;;;;6.34;2.87;;;;;;;15.16;79.46;99416.72;363936;147;857293;-60
2021/08/26 08:17:52;;;;;;;3.63;2.67;;;;;;;15.23;79.34;99414.73;362132;147;859022;-60
2021/08/26 08:18:54;;;;;;;4.94;2.62;;;;;;;;;;362681;147;865783;-60
2021/08/26 08:19:55;;;;;;;8.22;2.71;;;;;;;;;;369120;144;865511;-61
2021/08/26 08:20:57;;;;;;;3.28;2.42;;;;;;;;;;371084;144;858483;-60
2021/08/26 08:21:59;;;;;;;4.29;2.61;;;;;;;;;;372263;143;864935;-61
2021/08/26 08:23:01;;;;;;;2.98;2.49;;;;;;;;;;369489;144;857269;-60
2021/08/26 08:24:03;;;;;;;3.55;2.73;;;;;;;;;;369359;143;864749;-59
2021/08/26 08:25:05;;;;;;;4.11;2.93;;;;;;;;;;369500;143;856255;-59
2021/08/26 08:26:10;;;;;;;4.54;2.99;;;;;;;;;;371024;143;856296;-60
2021/08/26 08:27:11;;;;;;;9.09;3.19;;;;;;;;;;368301;143;856768;-59
2021/08/26 08:28:14;;;;;;;3.25;2.54;;;;;;;;;;367326;143;856400;-60
2021/08/26 08:29:16;;;;;;;5.27;3.23;;;;;;;;;;363913;146;856668;-60
2021/08/26 08:30:18;;;;;;;5.88;2.99;;;;;;;;;;363764;145;856407;-60
2021/08/26 08:31:19;;;;;;;5.01;3.10;;;;;;;;;;363946;146;864389;-60
2021/08/26 08:32:21;;;;;;;4.09;3.17;;;;;;;;;;363608;145;863822;-60
2021/08/26 08:33:22;;;;;;;6.92;3.11;;;;;;;;;;364324;146;856445;-61
2021/08/26 08:34:24;;;;;;;4.46;3.00;;;;;;;;;;363143;147;856593;-60
2021/08/26 08:35:25;;;;;;;5.26;3.16;;;;;;;;;;364682;146;856503;-59
2021/08/26 08:36:28;;;;;;;4.24;3.20;;;;;;;;;;365033;145;856333;-59
2021/08/26 08:37:30;;;;;;;4.45;3.00;;;;;;;;;;362500;147;864915;-59
2021/08/26 08:38:31;;;;;;;4.11;2.75;;;;;;;;;;362887;147;863642;-60
2021/08/26 08:39:33;;;;;;;3.61;3.00;;;;;;;;;;363463;146;856298;-60
2021/08/26 08:40:37;;;;;;;3.79;2.84;;;;;;;;;;363253;146;856411;-59
2021/08/26 08:41:39;;;;;;;3.99;2.82;;;;;;;;;;363949;145;856452;-59
2021/08/26 08:42:40;;;;;;;5.00;2.98;;;;;;;;;;363051;145;863785;-60
2021/08/26 08:43:42;;;;;;;4.09;2.90;;;;;;;;;;363258;146;863851;-60
2021/08/26 08:44:43;;;;;;;4.80;3.13;;;;;;;;;;363874;145;856460;-60
2021/08/26 08:45:45;;;;;;;6.24;3.59;;;;;;;;;;364088;146;856380;-61
2021/08/26 08:46:50;;;;;;;5.70;3.28;;;;;;;;;;364217;146;856324;-59
2021/08/26 08:47:52;;;;;;;3.87;3.15;;;;;;;;;;362742;146;856904;-60
2021/08/26 08:48:56;;;;;;;4.37;2.66;;;;;;;;;;364126;145;863685;-60
2021/08/26 08:50:00;;;;;;;4.09;3.31;;;;;;;;;;365032;146;863980;-59
2021/08/26 08:51:02;;;;;;;4.53;2.73;;;;;;;;;;363201;146;856462;-59
2021/08/26 08:52:05;;;;;;;5.64;3.57;;;;;;;;;;365319;145;863735;-59
2021/08/26 08:53:12;;;;;;;4.55;3.32;;;;;;;;;;365183;147;862852;-59
2021/08/26 08:54:15;;;;;;;5.03;3.02;;;;;;;;;;360927;146;856567;-60
2021/08/26 08:55:19;;;;;;;5.25;3.32;;;;;;;;;;362121;147;856749;-59
2021/08/26 08:56:26;;;;;;;5.22;3.42;;;;;;;;;;363701;146;856507;-58
2021/08/26 08:57:26;;;;;;;5.43;3.35;;;;;;;;;;362610;146;857081;-59
2021/08/26 08:58:28;;;;;;;6.29;3.12;;;;;;;;;;365113;146;856495;-59
2021/08/26 08:59:31;;;;;;;6.27;3.14;;;;;;;;;;360188;147;856222;-58
2021/08/26 09:00:34;;;;;;;6.26;2.84;;;;;;;;;;363539;147;856322;-59
2021/08/26 09:01:36;;;;;;;3.63;2.48;;;;;;;;;;364457;146;856265;-59
2021/08/26 09:02:38;;;;;;;2.70;2.27;;;;;;;;;;365468;147;857013;-61
2021/08/26 09:03:40;;;;;;;3.14;2.59;;;;;;;;;;361634;145;856414;-59
2021/08/26 09:04:55;;;;;;;4.10;2.44;;;;;;;;;;365841;146;856428;-59
2021/08/26 09:05:58;;;;;;;2.93;2.32;;;;;;;;;;363921;146;856428;-59
2021/08/26 09:07:01;;;;;;;3.44;2.12;;;;;;;;;;363039;145;856742;-59
2021/08/26 09:08:09;;;;;;;5.96;2.39;;;;;;;;;;365222;146;857467;-59
2021/08/26 09:09:12;;;;;;;2.13;1.94;;;;;;;;;;360719;146;857432;-59
2021/08/26 09:10:18;;;;;;;3.16;2.33;;;;;;;;;;364441;147;856234;-58
2021/08/26 09:11:20;;;;;;;3.60;2.44;;;;;;;;;;362517;146;856880;-59
2021/08/26 09:12:43;;;;;;;5.07;2.83;;;;;;;;;;363806;146;857717;-58
2021/08/26 09:13:45;;;;;;;2.56;2.29;;;;;;;;;;362699;147;856606;-59
2021/08/26 09:14:48;;;;;;;3.41;2.67;;;;;;;;;;363535;147;857710;-59
2021/08/26 09:15:50;;;;;;;5.45;2.49;;;;;;;;;;364891;146;856304;-59
2021/08/26 09:16:54;;;;;;;3.47;2.02;;;;;;;;;;366072;147;856480;-58
2021/08/26 09:18:01;;;;;;;6.33;2.52;;;;;;;;;;363817;145;856656;-59
2021/08/26 09:19:17;;;;;;;3.13;2.34;;;;;;;;;;361494;146;857072;-59
2021/08/26 09:20:21;;;;;;;4.14;2.55;;;;;;;;;;363579;147;856389;-58
2021/08/26 09:21:24;;;;;;;3.34;2.41;;;;;;;;;;364947;147;856365;-59
2021/08/26 09:22:27;;;;;;;3.33;2.49;;;;;;;;;;362265;146;856409;-59
2021/08/26 09:23:30;;;;;;;3.47;2.62;;;;;;;;;;367117;145;856302;-59
2021/08/26 09:24:46;;;;;;;3.43;2.43;;;;;;;;;;364887;145;856952;-59
2021/08/26 09:25:49;;;;;;;11.08;2.52;;;;;;;;;;364397;146;857020;-59
2021/08/26 09:26:52;;;;;;;3.60;2.65;;;;;;;;;;363947;146;857066;-59
2021/08/26 09:27:55;;;;;;;3.83;2.48;;;;;;;;;;362989;147;856326;-59
2021/08/26 09:29:02;;;;;;;3.37;2.69;;;;;;;19.72;0.00;64014.86;362622;146;863675;-59
2021/08/26 09:30:08;;;;;;;6.09;2.22;;;;;;;;;;364558;146;856478;-59
2021/08/26 09:31:24;;;;;;;2.65;2.45;;;;;;;;;;360945;147;856216;-60
2021/08/26 09:32:34;;;;;;;4.38;2.32;;;;;;;;;;364143;147;856826;-59
2021/08/26 09:33:53;;;;;;;2.88;2.37;;;;;;;;;;364045;146;856382;-59
2021/08/26 09:34:56;;;;;;;2.31;2.08;;;;;;;;;;362859;147;863650;-60
2021/08/26 09:35:59;;;;;;;2.41;1.99;;;;;;;;;;358749;147;856755;-59
2021/08/26 09:37:03;;;;;;;2.76;2.32;;;;;;;;;;365648;146;863649;-59
2021/08/26 09:38:05;;;;;;;3.09;2.10;;;;;;;;;;365905;147;856222;-59
2021/08/26 09:39:09;;;;;;;4.26;2.25;;;;;;;;;;365954;147;857329;-59
2021/08/26 09:40:12;;;;;;;3.04;2.34;;;;;;;;;;360342;146;857023;-59
2021/08/26 09:41:15;;;;;;;4.23;2.71;;;;;;;;;;364774;145;857028;-60
2021/08/26 09:42:18;;;;;;;6.14;2.49;;;;;;;;;;364874;147;856394;-59
2021/08/26 09:43:22;;;;;;;5.19;2.67;;;;;;;;;;364565;146;863936;-59
2021/08/26 09:44:26;;;;;;;5.26;2.47;;;;;;;;;;362588;146;864040;-58
2021/08/26 09:45:35;;;;;;;3.67;2.26;;;;;;;;;;364554;147;856653;-58
2021/08/26 09:46:39;;;;;;;8.83;2.51;;;;;;;;;;364006;147;856975;-59
2021/08/26 09:47:59;;;;;;;4.67;2.23;;;;;;;;;;365385;146;856301;-60
2021/08/26 09:49:01;;;;;;;;;;;;;;;;;;366645;147;855681;-60
2021/08/26 09:50:05;;;;;;;4.26;2.30;;;;;;;;;;365962;147;856461;-59
2021/08/26 09:51:08;;;;;;;2.59;2.24;;;;;;;;;;363475;146;856244;-59
2021/08/26 09:52:14;;;;;;;4.99;2.40;;;;;;;;;;358438;148;856363;-59
2021/08/26 09:53:17;;;;;;;7.00;2.33;;;;;;;;;;358336;147;856300;-59
2021/08/26 09:54:32;;;;;;;3.12;2.42;;;;;;;;;;363084;145;857012;-58
2021/08/26 09:55:53;;;;;;;3.46;2.07;;;;;;;;;;364114;146;856239;-59
2021/08/26 09:56:58;;;;;;;3.31;2.47;;;;;;;;;;363537;146;856330;-59
2021/08/26 09:58:13;;;;;;;5.40;2.24;;;;;;;;;;365742;146;856331;-59
2021/08/26 09:59:16;;;;;;;5.40;1.93;;;;;;;;;;365125;146;856870;-59
2021/08/26 10:00:20;;;;;;;4.43;2.06;;;;;;;;;;366010;147;856426;-59
2021/08/26 10:01:23;;;;;;;2.11;1.84;;;;;;;;;;357653;148;856560;-58
2021/08/26 10:02:28;;;;;;;5.71;1.97;;;;;;;;;;356118;148;857137;-57
2021/08/26 10:03:31;;;;;;;4.15;1.95;;;;;;;;;;359113;147;856526;-58
2021/08/26 10:04:34;;;;;;;2.80;1.77;;;;;;;;;;363850;146;856599;-58
2021/08/26 10:05:42;;;;;;;2.46;1.74;;;;;;;;;;363911;146;856510;-59
2021/08/26 10:06:45;;;;;;;2.99;1.62;;;;;;;;;;363643;147;857060;-59
2021/08/26 10:07:52;;;;;;;2.33;1.66;;;;;;;;;;365245;146;856302;-58
2021/08/26 10:08:52;;;;;;;2.55;1.68;;;;;;;;;;365551;146;856466;-59
2021/08/26 10:09:55;;;;;;;2.42;1.61;;;;;;;;;;364615;146;856241;-59
2021/08/26 10:10:59;;;;;;;2.98;1.45;;;;;;;;;;357969;150;856210;-59
2021/08/26 10:12:02;;;;;;;13.51;1.89;;;;;;;;;;351435;151;857012;-59
2021/08/26 10:13:04;;;;;;;1.85;1.59;;;;;;;;;;351629;151;856929;-59
2021/08/26 10:14:07;;;;;;;2.11;1.51;;;;;;;;;;355779;151;864532;-57
2021/08/26 10:15:10;;;;;;;2.08;1.43;;;;;;;;;;353626;151;864260;-58
2021/08/26 10:16:13;;;;;;;2.66;1.52;;;;;;;;;;353620;150;863842;-59
2021/08/26 10:17:16;;;;;;;2.78;1.70;;;;;;;;;;353201;150;856398;-59
2021/08/26 10:18:18;;;;;;;3.40;1.46;;;;;;;;;;356348;151;863677;-59
2021/08/26 10:19:20;;;;;;;3.47;1.48;;;;;;;;;;353454;150;856864;-59
2021/08/26 10:20:22;;;;;;;2.29;1.70;;;;;;;;;;354448;150;856491;-59
2021/08/26 10:21:24;;;;;;;5.64;1.66;;;;;;;;;;356245;151;863974;-58
2021/08/26 10:22:27;;;;;;;1.84;1.51;;;;;;;;;;354742;151;856687;-57
2021/08/26 10:23:29;;;;;;;3.34;1.50;;;;;;;;;;354112;150;856950;-58
2021/08/26 10:24:30;;;;;;;5.10;1.95;;;;;;;;;;351836;151;856259;-57
2021/08/26 10:25:32;;;;;;;3.84;1.94;;;;;;;;;;353590;151;856241;-59
2021/08/26 10:26:35;;;;;;;1.64;1.51;;;;;;;;;;349336;152;856330;-60
2021/08/26 10:27:37;;;;;;;2.41;1.59;;;;;;;;;;359085;147;856816;-60
2021/08/26 10:28:39;;;;;;;2.49;1.55;;;;;;;;;;364346;146;863560;-59
2021/08/26 10:29:44;;;;;;;2.29;2.09;;;;;;;;;;363308;147;857053;-59
2021/08/26 10:30:47;;;;;;;3.87;1.90;;;;;;;;;;363722;146;856423;-59
2021/08/26 10:31:55;;;;;;;2.51;2.00;;;;;;;;;;364706;146;856221;-59
2021/08/26 10:33:04;;;;;;;3.88;2.28;;;;;;;;;;364733;147;856828;-59
2021/08/26 10:34:13;;;;;;;2.98;2.68;;;;;;;;;;363217;146;856578;-58
2021/08/26 10:35:15;;;;;;;3.43;2.18;;;;;;;;;;363499;147;856399;-59
2021/08/26 10:36:18;;;;;;;2.60;1.95;;;;;;;;;;362721;145;857253;-59
2021/08/26 10:37:20;;;;;;;6.22;1.70;;;;;;;;;;364023;146;856383;-59
2021/08/26 10:38:24;;;;;;;1.91;1.61;;;;;;;;;;363758;146;856529;-59
2021/08/26 10:39:31;;;;;;;1.90;1.63;;;;;;;;;;363331;147;856379;-59
2021/08/26 10:40:35;;;;;;;3.29;1.59;;;;;;;;;;365159;146;856221;-59
2021/08/26 10:41:36;;;;;;;3.15;1.64;;;;;;;;;;363851;146;856412;-60
2021/08/26 10:42:38;;;;;;;6.30;2.26;;;;;;;;;;364838;146;856306;-59
2021/08/26 10:43:40;;;;;;;3.31;2.30;;;;;;;;;;363445;146;856860;-59
2021/08/26 10:44:57;;;;;;;3.08;1.64;;;;;;;;;;364552;146;857103;-58
2021/08/26 10:45:59;;;;;;;1.64;1.48;;;;;;;;;;361300;147;856812;-59
2021/08/26 10:47:02;;;;;;;1.68;1.30;;;;;;;;;;362182;146;856735;-59
2021/08/26 10:48:08;;;;;;;3.57;1.45;;;;;;;;;;365242;146;856890;-59
2021/08/26 10:49:09;;;;;;;2.09;1.37;;;;;;;;;;364250;146;856310;-59
2021/08/26 10:50:19;;;;;;;1.85;1.48;;;;;;;;;;361502;147;856242;-59
2021/08/26 10:51:21;;;;;;;1.56;1.43;;;;;;;;;;363854;147;856604;-59
2021/08/26 10:52:25;;;;;;;1.44;1.02;;;;;;;;;;363213;146;856520;-60
2021/08/26 10:53:27;;;;;;;2.64;1.25;;;;;;;;;;354889;147;861038;-60
2021/08/26 10:54:30;;;;;;;2.64;1.21;;;;;;;;;;365255;146;857303;-60
2021/08/26 10:55:32;;;;;;;1.38;1.28;;;;;;;;;;364370;146;856450;-58
2021/08/26 10:56:34;;;;;;;2.17;1.28;;;;;;;;;;363655;147;856289;-58
2021/08/26 10:57:36;;;;;;;2.86;1.35;;;;;;;;;;366277;147;863902;-58
2021/08/26 10:58:38;;;;;;;3.04;1.28;;;;;;;;;;364312;146;856277;-58
2021/08/26 10:59:39;;;;;;;1.73;1.40;;;;;;;;;;364945;146;856312;-58
2021/08/26 11:00:46;;;;;;;2.58;1.40;;;;;;;;;;363422;147;863927;-59
2021/08/26 11:01:45;;;;;;;1.49;1.28;;;;;;;;;;362511;146;856609;-59
2021/08/26 11:02:47;;;;;;;2.95;1.35;;;;;;;;;;366280;146;857088;-58
2021/08/26 11:03:49;;;;;;;4.05;1.75;;;;;;;;;;361320;146;856341;-59
2021/08/26 11:04:50;;;;;;;2.25;1.41;;;;;;;;;;361801;147;856789;-60
2021/08/26 11:05:52;;;;;;;3.86;1.41;;;;;;;;;;361294;145;856998;-60
2021/08/26 11:06:55;;;;;;;2.11;1.52;;;;;;;;;;363398;146;856950;-60
2021/08/26 11:07:56;;;;;;;6.86;1.48;;;;;;;;;;362524;145;856176;-60
2021/08/26 11:08:59;;;;;;;3.19;1.66;;;;;;;;;;362005;145;863599;-60
2021/08/26 11:10:03;;;;;;;1.74;1.37;;;;;;;;;;361278;146;856608;-60
2021/08/26 11:11:23;;;;;;;1.18;1.02;;;;;;;;;;359594;146;856874;-59
2021/08/26 11:29:50;;;;;;;1.86;1.43;;;;;;;19.83;57.96;99381.97;372518;142;880623;-58
2021/08/26 11:30:52;;;;;;;1.72;1.46;;;;;;;19.70;58.67;99379.20;361622;144;856241;-58
2021/08/26 11:31:57;;;;;;;1.94;1.41;;;;;;;19.70;58.82;99376.57;363050;148;856332;-57
2021/08/26 11:32:59;;;;;;;1.91;1.31;;;;;;;19.64;58.78;99382.16;363303;145;863895;-59
2021/08/26 11:34:01;;;;;;;1.52;1.40;;;;;;;19.57;58.79;99379.01;362616;145;856354;-58
2021/08/26 11:35:03;;;;;;;1.58;1.24;;;;;;;19.46;59.46;99381.38;364164;145;863788;-58
2021/08/26 11:36:14;;;;;;;1.88;1.69;;;;;;;19.41;60.09;99384.23;360944;145;856351;-58
2021/08/26 11:37:22;;;;;;;1.93;1.72;;;;;;;19.39;60.95;99376.45;360807;145;856344;-59
2021/08/26 11:38:24;;;;;;;2.09;1.89;;;;;;;19.39;60.39;99383.47;363578;145;864633;-58
2021/08/26 11:39:27;;;;;;;2.24;2.09;;;;;;;19.38;59.20;99377.38;359480;148;856453;-57
2021/08/26 11:40:30;;;;;;;2.53;1.96;;;;;;;19.36;59.36;99384.49;363223;146;864086;-59
2021/08/26 11:41:32;;;;;;;2.08;1.62;;;;;;;19.37;59.47;99378.31;363573;145;856491;-58
2021/08/26 11:42:40;;;;;;;2.33;1.72;;;;;;;19.34;59.96;99378.48;363697;146;863852;-58
2021/08/26 11:43:43;;;;;;;2.66;1.82;;;;;;;19.29;60.11;99370.00;361947;145;863804;-58
2021/08/26 11:44:47;;;;;;;1.91;1.70;;;;;;;19.23;59.51;99380.83;362382;145;857293;-58
2021/08/26 11:45:48;;;;;;;1.66;1.43;;;;;;;19.22;60.32;99379.97;362193;147;863925;-58
2021/08/26 11:46:51;;;;;;;2.21;1.65;;;;;;;19.25;59.73;99378.97;355202;150;856968;-59
2021/08/26 11:47:54;;;;;;;1.72;1.58;;;;;;;19.25;59.95;99377.18;362089;145;856327;-60
2021/08/26 11:48:56;;;;;;;2.09;1.57;;;;;;;19.30;59.95;99376.95;357280;147;863957;-59
2021/08/26 11:50:16;;;;;;;1.75;1.61;;;;;;;19.36;59.65;99388.88;358398;147;856771;-58
2021/08/26 11:51:22;;;;;;;2.72;1.60;;;;;;;19.36;59.65;99388.88;359430;148;856442;-59
2021/08/26 11:52:24;;;;;;;2.59;1.85;;;;;;;19.48;59.77;99380.34;359094;147;856426;-58
2021/08/26 11:53:26;;;;;;;2.21;1.56;;;;;;;19.53;59.39;99377.48;350395;151;856399;-60
2021/08/26 11:54:28;;;;;;;2.09;1.57;;;;;;;19.56;59.15;99377.31;351882;149;863993;-58
2021/08/26 11:55:31;;;;;;;1.68;1.58;;;;;;;19.58;58.90;99375.45;356925;148;863919;-58
2021/08/26 11:56:43;;;;;;;1.86;1.69;;;;;;;19.62;59.33;99376.98;357451;149;863843;-59
2021/08/26 11:57:45;;;;;;;1.96;1.77;;;;;;;19.62;59.33;99376.98;350717;150;857024;-58
2021/08/26 11:58:46;;;;;;;3.61;1.84;;;;;;;19.61;59.69;99379.67;358039;148;856375;-58
2021/08/26 11:59:48;;;;;;;3.04;2.34;;;;;;;19.61;59.69;99379.67;358895;147;863463;-58
2021/08/26 12:00:53;;;;;;;2.01;1.83;;;;;;;19.56;59.37;99372.89;360078;147;863892;-58
2021/08/26 12:02:20;;;;;;;2.11;1.91;;;;;;;19.52;59.49;99384.50;358934;147;857000;-58
2021/08/26 12:03:22;;;;;;;3.20;1.98;;;;;;;19.43;59.71;99378.91;358737;147;856614;-57
2021/08/26 12:04:35;;;;;;;3.63;2.08;;;;;;;19.26;61.32;99376.25;358236;148;856935;-58
2021/08/26 12:05:41;;;;;;;3.20;2.19;;;;;;;19.18;60.83;99373.19;357845;147;856321;-59
2021/08/26 12:06:50;;;;;;;3.48;2.06;;;;;;;19.17;60.54;99378.53;357341;147;856952;-59
2021/08/26 12:07:52;;;;;;;5.07;2.32;;;;;;;19.17;60.80;99374.11;358448;148;856399;-59
2021/08/26 12:08:54;;;;;;;3.59;2.22;;;;;;;19.19;61.30;99380.12;358439;148;856295;-59
2021/08/26 12:09:57;;;;;;;3.76;2.44;;;;;;;19.13;61.02;99375.20;359226;147;857363;-60
2021/08/26 12:10:59;;;;;;;2.64;2.00;;;;;;;19.10;61.25;99372.75;356984;148;863671;-58
2021/08/26 12:12:11;;;;;;;3.40;2.05;;;;;;;19.09;60.85;99376.30;359230;149;856666;-59
2021/08/26 12:13:20;;;;;;;2.57;1.97;;;;;;;19.06;60.54;99371.20;358882;147;864116;-59
2021/08/26 12:14:21;;;;;;;2.22;2.02;;;;;;;19.04;60.99;99375.69;358643;147;856445;-58
2021/08/26 12:15:32;;;;;;;2.92;2.14;;;;;;;19.02;61.40;99374.92;360478;147;856499;-58
2021/08/26 12:16:34;;;;;;;2.52;2.12;;;;;;;19.02;61.40;99374.92;358184;147;856592;-59
2021/08/26 12:17:35;;;;;;;2.55;2.08;;;;;;;18.93;62.01;99378.83;358728;147;856273;-59
2021/08/26 12:18:37;;;;;;;3.59;2.14;;;;;;;18.90;61.97;99373.73;359263;147;863946;-59
2021/08/26 12:19:39;;;;;;;2.49;2.14;;;;;;;18.83;62.00;99379.30;358042;147;856308;-59
2021/08/26 12:20:45;;;;;;;2.74;2.09;;;;;;;18.73;62.37;99378.08;358844;147;863471;-58
2021/08/26 12:21:46;;;;;;;3.14;2.19;;;;;;;18.68;62.73;99374.84;357963;147;863900;-60
2021/08/26 12:22:49;;;;;;;4.06;2.54;;;;;;;18.65;63.56;99388.11;358041;148;863474;-59
2021/08/26 12:23:50;;;;;;;3.96;2.28;;;;;;;18.65;64.02;99382.87;359516;148;863717;-59
2021/08/26 12:25:00;;;;;;;3.38;2.46;;;;;;;18.62;63.99;99368.16;359085;149;856411;-58
2021/08/26 12:26:15;;;;;;;2.65;2.22;;;;;;;18.71;63.79;99372.06;358727;147;863598;-58
2021/08/26 12:27:17;;;;;;;3.63;2.35;;;;;;;18.72;63.55;99375.55;358396;147;857000;-58
2021/08/26 12:28:18;;;;;;;9.48;2.84;;;;;;;18.66;64.12;99371.45;358002;147;856671;-60
2021/08/26 12:29:20;;;;;;;4.77;2.59;;;;;;;18.66;64.12;99371.45;359777;148;863850;-60
2021/08/26 12:30:42;;;;;;;3.31;2.44;;;;;;;18.68;63.91;99367.84;358236;147;856859;-59
2021/08/26 12:31:47;;;;;;;6.08;2.41;;;;;;;18.72;63.59;99375.55;358452;148;857000;-58
2021/08/26 12:32:47;;;;;;;12.84;3.04;;;;;;;18.72;63.59;99375.55;358381;149;856480;-58
2021/08/26 12:34:09;;;;;;;8.36;3.29;;;;;;;18.63;64.00;99380.34;358590;148;864495;-58
2021/08/26 12:35:12;;;;;;;6.72;2.86;;;;;;;18.63;64.00;99380.34;359894;147;864249;-58
2021/08/26 12:36:17;;;;;;;2.71;2.47;;;;;;;;;;357944;148;857758;-59
2021/08/26 12:37:19;;;;;;;2.62;2.42;;;;;;;;;;358091;148;856547;-58
2021/08/26 12:38:39;;;;;;;4.51;2.53;;;;;;;;;;358578;147;857378;-58
2021/08/26 12:39:41;;;;;;;3.09;2.75;;;;;;;;;;358632;148;857302;-60
2021/08/26 12:40:48;;;;;;;3.45;2.81;;;;;;;;;;358015;148;859474;-60
2021/08/26 12:42:03;;;;;;;3.78;2.62;;;;;;;;;;358446;148;861543;-58
2021/08/26 12:43:05;;;;;;;3.98;3.11;;;;;;;;;;359267;147;856450;-58
2021/08/26 12:44:07;;;;;;;4.55;2.67;;;;;;;;;;358721;148;856296;-57
2021/08/26 12:45:18;;;;;;;3.43;2.81;;;;;;;;;;357579;148;856574;-58
2021/08/26 12:46:24;;;;;;;4.00;3.06;;;;;;;;;;358728;147;863885;-57
2021/08/26 12:47:27;;;;;;;4.76;2.88;;;;;;;;;;357819;147;856508;-59
2021/08/26 12:48:29;;;;;;;4.99;2.79;;;;;;;;;;357263;147;856998;-59
2021/08/26 12:49:43;;;;;;;4.54;2.73;;;;;;;;;;358206;147;856399;-58
2021/08/26 12:50:47;;;;;;;3.14;2.62;;;;;;;;;;358965;147;856411;-58
2021/08/26 12:51:52;;;;;;;3.46;2.66;;;;;;;;;;359753;148;857078;-58
2021/08/26 12:52:54;;;;;;;3.01;2.62;;;;;;;;;;358345;147;863824;-58
2021/08/26 12:53:58;;;;;;;4.95;2.72;;;;;;;;;;357380;147;856263;-58
2021/08/26 12:54:59;;;;;;;2.64;2.29;;;;;;;;;;358158;148;857113;-58
2021/08/26 12:56:01;;;;;;;3.27;2.30;;;;;;;;;;358121;147;857088;-58
2021/08/26 12:57:04;;;;;;;3.17;2.39;;;;;;;;;;356423;148;856559;-58
2021/08/26 12:58:10;;;;;;;2.59;2.38;;;;;;;;;;356094;147;856340;-58
2021/08/26 12:59:12;;;;;;;4.31;2.62;;;;;;;;;;359409;147;856895;-57
2021/08/26 13:00:33;;;;;;;4.48;3.30;;;;;;;;;;358588;147;857209;-57
2021/08/26 13:01:37;;;;;;;3.67;2.88;;;;;;;;;;358725;147;856188;-58
2021/08/26 13:02:53;;;;;;;3.21;2.83;;;;;;;;;;359539;147;856203;-58
2021/08/26 13:03:55;;;;;;;3.56;3.20;;;;;;;;;;358853;148;856401;-58
2021/08/26 13:05:01;;;;;;;3.70;3.09;;;;;;;;;;359127;147;856508;-58
2021/08/26 13:06:03;;;;;;;4.11;3.03;;;;;;;;;;358850;148;864245;-59
2021/08/26 13:07:20;;;;;;;3.91;3.01;;;;;;;;;;359066;147;856332;-58
2021/08/26 13:08:21;;;;;;;4.33;3.41;;;;;;;;;;358477;148;863832;-59
2021/08/26 13:09:27;;;;;;;4.01;3.12;;;;;;;;;;358480;148;856468;-59
2021/08/26 13:10:30;;;;;;;4.66;3.00;;;;;;;;;;358084;148;857733;-59
2021/08/26 13:11:32;;;;;;;4.65;3.00;;;;;;;;;;358690;147;856929;-58
2021/08/26 13:12:34;;;;;;;4.05;2.91;;;;;;;;;;357889;147;857828;-59
2021/08/26 13:13:36;;;;;;;4.06;2.99;;;;;;;;;;359099;147;856371;-58
2021/08/26 13:14:39;;;;;;;4.74;3.23;;;;;;;;;;359344;147;856447;-59
2021/08/26 13:15:41;;;;;;;5.21;2.92;;;;;;;;;;357422;148;856298;-59
2021/08/26 13:16:44;;;;;;;4.19;2.72;;;;;;;;;;357620;149;856329;-58
2021/08/26 13:17:47;;;;;;;3.91;3.03;;;;;;;;;;358058;147;856396;-59
2021/08/26 13:18:48;;;;;;;3.71;2.97;;;;;;;;;;357622;149;856770;-59
2021/08/26 13:19:53;;;;;;;6.48;3.29;;;;;;;;;;359231;147;856511;-59
2021/08/26 13:20:55;;;;;;;4.94;3.12;;;;;;;;;;359452;147;856727;-59
2021/08/26 13:21:56;;;;;;;4.88;3.17;;;;;;;;;;359684;148;863852;-59
2021/08/26 13:22:58;;;;;;;3.39;2.92;;;;;;;;;;356572;148;858642;-59
2021/08/26 13:23:59;;;;;;;4.31;2.99;;;;;;;;;;358910;147;856931;-58
2021/08/26 13:25:04;;;;;;;4.71;3.02;;;;;;;;;;359012;147;856658;-59
2021/08/26 13:26:06;;;;;;;4.42;2.93;;;;;;;;;;357604;148;863703;-59
2021/08/26 13:27:08;;;;;;;5.26;3.44;;;;;;;;;;358401;148;856470;-58
2021/08/26 13:28:10;;;;;;;3.23;2.70;;;;;;;;;;358510;148;858156;-58
2021/08/26 13:29:11;;;;;;;5.08;2.81;;;;;;;;;;357697;149;863627;-59
2021/08/26 13:30:14;;;;;;;3.61;2.96;;;;;;;;;;358259;147;856103;-58
2021/08/26 13:31:15;;;;;;;3.69;2.96;;;;;;;;;;356520;149;863734;-59
2021/08/26 13:32:17;;;;;;;3.41;2.59;;;;;;;;;;356057;148;856680;-58
2021/08/26 13:33:21;;;;;;;4.50;2.96;;;;;;;;;;355186;148;856494;-59
2021/08/26 13:34:22;;;;;;;2.87;2.41;;;;;;;;;;357273;149;857000;-58
2021/08/26 13:35:24;;;;;;;4.29;2.76;;;;;;;;;;356622;147;856938;-58
2021/08/26 13:36:29;;;;;;;4.86;2.59;;;;;;;;;;357550;150;864326;-58
2021/08/26 13:37:31;;;;;;;3.75;2.51;;;;;;;;;;356633;147;863609;-59
2021/08/26 13:38:33;;;;;;;3.44;2.69;;;;;;;;;;356822;147;863713;-58
2021/08/26 13:39:35;;;;;;;3.67;2.59;;;;;;;;;;356858;149;858785;-60
2021/08/26 13:40:37;;;;;;;4.36;2.99;;;;;;;;;;358141;148;856194;-58
2021/08/26 13:41:38;;;;;;;3.63;2.40;;;;;;;;;;356001;147;863611;-57
2021/08/26 13:42:40;;;;;;;3.19;2.58;;;;;;;;;;356215;148;856696;-59
2021/08/26 13:43:41;;;;;;;4.24;2.39;;;;;;;;;;356366;147;856539;-58
2021/08/26 13:44:43;;;;;;;2.87;2.51;;;;;;;;;;356629;147;856880;-58
2021/08/26 13:45:44;;;;;;;3.15;2.34;;;;;;;;;;357167;147;856492;-59
2021/08/26 13:46:48;;;;;;;4.41;2.47;;;;;;;;;;355509;149;857171;-59
2021/08/26 13:47:50;;;;;;;3.44;2.79;;;;;;;;;;358151;147;856260;-59
2021/08/26 13:48:51;;;;;;;2.40;2.20;;;;;;;;;;355446;148;857454;-58
2021/08/26 13:49:53;;;;;;;3.73;2.59;;;;;;;;;;356353;147;856313;-58
2021/08/26 13:50:55;;;;;;;2.99;2.26;;;;;;;;;;356633;148;856708;-59
2021/08/26 13:51:57;;;;;;;3.34;2.64;;;;;;;;;;356997;147;857342;-59
2021/08/26 13:52:58;;;;;;;2.89;2.34;;;;;;;;;;356096;147;856189;-59
2021/08/26 13:54:00;;;;;;;2.48;1.99;;;;;;;;;;356470;150;856203;-59
2021/08/26 13:55:01;;;;;;;3.62;2.46;;;;;;;;;;357854;148;856253;-59
2021/08/26 13:56:03;;;;;;;2.86;2.54;;;;;;;;;;357885;147;863911;-59
2021/08/26 13:57:05;;;;;;;4.49;2.27;;;;;;;;;;355325;149;863480;-58
2021/08/26 13:58:06;;;;;;;2.41;1.96;;;;;;;;;;356018;149;857691;-58
2021/08/26 13:59:08;;;;;;;2.34;2.14;;;;;;;;;;358567;147;856250;-57
2021/08/26 14:00:14;;;;;;;2.94;2.24;;;;;;;;;;356496;147;856351;-58
2021/08/26 14:01:15;;;;;;;2.91;2.41;;;;;;;;;;354602;151;856713;-58
2021/08/26 14:02:18;;;;;;;3.51;2.49;;;;;;;;;;356579;149;856779;-58
2021/08/26 14:03:19;;;;;;;2.58;2.28;;;;;;;;;;356641;149;856579;-59
2021/08/26 14:04:21;;;;;;;3.54;2.16;;;;;;;;;;357326;149;863657;-59
2021/08/26 14:05:22;;;;;;;3.49;2.45;;;;;;;;;;356988;150;856920;-59
2021/08/26 14:06:25;;;;;;;2.45;1.93;;;;;;;;;;357021;147;856612;-58
2021/08/26 14:07:26;;;;;;;3.71;2.29;;;;;;;;;;356845;148;856425;-59
2021/08/26 14:08:28;;;;;;;3.28;2.26;;;;;;;;;;356876;147;856181;-58
2021/08/26 14:09:29;;;;;;;6.60;2.11;;;;;;;;;;352699;152;856749;-59
2021/08/26 14:10:31;;;;;;;4.13;2.52;;;;;;;;;;357078;147;856272;-58
2021/08/26 14:11:33;;;;;;;2.62;2.02;;;;;;;;;;359503;149;856329;-58
2021/08/26 14:12:34;;;;;;;2.43;2.18;;;;;;;;;;358380;149;856098;-58
2021/08/26 14:13:36;;;;;;;3.05;2.10;;;;;;;;;;358320;147;864736;-59
2021/08/26 14:14:38;;;;;;;2.99;2.11;;;;;;;;;;356612;149;864093;-59
2021/08/26 14:15:39;;;;;;;2.95;2.19;;;;;;;;;;357497;150;856167;-59
2021/08/26 14:16:41;;;;;;;3.45;2.10;;;;;;;;;;357137;149;856186;-58
2021/08/26 14:17:43;;;;;;;2.86;2.09;;;;;;;;;;359092;148;856341;-59
2021/08/26 14:18:44;;;;;;;2.65;1.96;;;;;;;;;;358710;147;856435;-59
2021/08/26 14:19:52;;;;;;;2.91;2.29;;;;;;;;;;356885;151;863685;-58
2021/08/26 14:20:50;;;;;;;4.37;2.11;;;;;;;;;;356949;149;856574;-59
2021/08/26 14:21:51;;;;;;;4.16;2.01;;;;;;;;;;356386;149;863670;-58
2021/08/26 14:22:53;;;;;;;2.69;2.36;;;;;;;;;;355012;149;863572;-58
2021/08/26 14:23:54;;;;;;;2.19;1.99;;;;;;;;;;358417;149;856264;-58
2021/08/26 14:24:56;;;;;;;2.71;2.05;;;;;;;;;;356737;147;856260;-59
2021/08/26 14:25:58;;;;;;;2.71;1.83;;;;;;;;;;360651;147;856751;-58
2021/08/26 14:26:59;;;;;;;3.47;1.95;;;;;;;;;;353369;149;856843;-58
2021/08/26 14:28:01;;;;;;;3.67;2.16;;;;;;;;;;355859;148;863990;-59
2021/08/26 14:29:03;;;;;;;2.67;1.97;;;;;;;;;;357031;147;856323;-59
2021/08/26 14:30:05;;;;;;;3.37;2.06;;;;;;;;;;356562;147;856262;-60
2021/08/26 14:31:06;;;;;;;2.13;1.93;;;;;;;;;;356075;148;863739;-60